Time;durP1;ratioP1;P1;durP2;ratioP2;P2;SDS_P1;SDS_P2;PMS_P1;PMS_P2;Temp;Humidity;BMP_temperature;BMP_pressure;BME280_temperature;BME280_humidity;BME280_pressure;Samples;Min_cycle;Max_cycle;Signal;HPM_P1;HPM_P2
2021/01/25 00:02:06;;;;;;;82.70;38.00;;;;;;;1.21;72.08;96269.34;1790474;80;21543;-74
2021/01/25 00:04:32;;;;;;;89.65;41.08;;;;;;;1.20;72.36;96261.03;1790367;80;21202;-74
2021/01/25 00:06:58;;;;;;;89.83;38.40;;;;;;;1.20;72.41;96257.86;1790320;80;21155;-74
2021/01/25 00:09:24;;;;;;;74.00;35.55;;;;;;;1.20;72.41;96260.53;1790389;80;21074;-74
2021/01/25 00:11:50;;;;;;;68.55;31.77;;;;;;;1.22;72.49;96264.27;1790466;80;21589;-74
2021/01/25 00:14:17;;;;;;;49.10;23.67;;;;;;;1.22;72.50;96264.27;1790453;80;21066;-74
2021/01/25 00:16:43;;;;;;;41.53;18.67;;;;;;;1.21;72.54;96262.66;1790384;80;21251;-74
2021/01/25 00:19:09;;;;;;;38.65;16.95;;;;;;;1.22;72.50;96260.27;1790311;80;21030;-74
2021/01/25 00:21:36;;;;;;;36.77;15.80;;;;;;;1.21;72.56;96262.13;1790389;80;21122;-74
2021/01/25 00:24:03;;;;;;;36.63;16.60;;;;;;;1.25;72.54;96262.39;1790317;80;21098;-74
2021/01/25 00:26:29;;;;;;;47.25;19.55;;;;;;;1.24;72.41;96260.27;1790417;80;21138;-73
2021/01/25 00:28:55;;;;;;;59.13;24.82;;;;;;;1.22;72.36;96251.72;1790435;80;21142;-73
2021/01/25 00:31:21;;;;;;;76.42;34.95;;;;;;;1.13;72.40;96253.30;1790492;80;21138;-74
2021/01/25 00:33:47;;;;;;;91.87;37.10;;;;;;;1.03;72.59;96249.27;1790509;80;21102;-74
2021/01/25 00:36:13;;;;;;;78.60;34.92;;;;;;;0.95;72.83;96241.77;1790552;80;21165;-74
2021/01/25 00:38:39;;;;;;;76.42;34.85;;;;;;;0.90;72.93;96246.55;1790584;80;21063;-73
2021/01/25 00:41:06;;;;;;;78.30;35.50;;;;;;;0.82;73.09;96240.38;1790577;80;21483;-73
2021/01/25 00:43:32;;;;;;;87.17;36.88;;;;;;;0.81;73.36;96250.77;1788462;80;21031;-74
2021/01/25 00:45:58;;;;;;;84.83;38.53;;;;;;;0.73;73.30;96244.07;1787240;80;21554;-74
2021/01/25 00:48:24;;;;;;;92.90;37.55;;;;;;;0.70;73.45;96237.94;1787241;80;21127;-74
2021/01/25 00:50:50;;;;;;;86.02;41.05;;;;;;;0.68;73.63;96240.03;1787189;80;21117;-74
2021/01/25 00:53:16;;;;;;;77.50;37.25;;;;;;;0.62;74.64;96241.63;1787156;80;21297;-74
2021/01/25 00:55:43;;;;;;;150.32;56.18;;;;;;;0.63;74.54;96246.70;1787118;80;21153;-74
2021/01/25 00:58:10;;;;;;;115.35;44.95;;;;;;;0.69;74.23;96242.20;1787127;80;21058;-74
2021/01/25 01:00:36;;;;;;;62.73;26.17;;;;;;;0.70;74.07;96235.80;1787300;80;21526;-74
2021/01/25 01:03:03;;;;;;;47.53;21.90;;;;;;;0.69;74.19;96235.53;1787207;80;21035;-74
2021/01/25 01:05:30;;;;;;;48.17;21.12;;;;;;;0.64;74.13;96234.97;1787185;80;22032;-74
2021/01/25 01:07:56;;;;;;;67.25;28.50;;;;;;;0.63;74.45;96233.90;1787082;80;21102;-74
2021/01/25 01:10:23;;;;;;;58.48;26.48;;;;;;;0.66;74.63;96238.17;1787187;80;21130;-74
2021/01/25 01:12:49;;;;;;;128.62;53.38;;;;;;;0.70;74.64;96227.80;1787087;80;21071;-74
2021/01/25 01:15:16;;;;;;;68.25;35.13;;;;;;;0.71;74.32;96227.54;1787216;80;21134;-74
2021/01/25 01:17:42;;;;;;;41.88;20.72;;;;;;;0.65;75.20;96217.11;1787128;80;21266;-74
2021/01/25 01:20:10;;;;;;;45.10;21.80;;;;;;;0.64;74.77;96218.97;1787188;80;21558;-74
2021/01/25 01:22:36;;;;;;;38.15;17.57;;;;;;;0.62;74.78;96227.77;1787122;80;21131;-74
2021/01/25 01:25:08;;;;;;;29.45;14.50;;;;;;;0.55;75.34;96228.00;1787116;80;21134;-74
2021/01/25 01:27:34;;;;;;;34.63;16.10;;;;;;;0.51;75.47;96225.59;1787159;80;21094;-74
2021/01/25 01:30:00;;;;;;;75.70;32.03;;;;;;;0.48;75.54;96223.42;1787213;80;21234;-74
2021/01/25 01:32:26;;;;;;;47.90;23.40;;;;;;;0.54;74.66;96216.27;1787104;80;21142;-74
2021/01/25 01:34:52;;;;;;;42.13;20.62;;;;;;;0.50;74.69;96218.63;1787211;80;21054;-74
2021/01/25 01:37:18;;;;;;;42.25;23.35;;;;;;;0.52;74.93;96213.87;1787150;80;21113;-74
2021/01/25 01:39:45;;;;;;;66.30;28.83;;;;;;;0.51;75.36;96214.93;1787110;80;21094;-74
2021/01/25 01:42:18;;;;;;;63.78;32.98;;;;;;;0.54;75.07;96210.41;1787234;80;21543;-74
2021/01/25 01:44:44;;;;;;;47.83;23.57;;;;;;;0.54;74.64;96204.27;1786989;80;21514;-74
2021/01/25 01:47:13;;;;;;;50.28;26.42;;;;;;;0.57;74.78;96209.08;1787249;80;21125;-73
2021/01/25 01:49:39;;;;;;;;;;;;;;;0.63;74.67;96210.70;1759415;80;21118;-74
2021/01/25 01:52:06;;;;;;;48.17;24.23;;;;;;;0.64;74.87;96212.84;1787215;80;20253;-74
2021/01/25 01:54:32;;;;;;;45.10;24.67;;;;;;;0.62;75.43;96211.77;1787096;80;21199;-74
2021/01/25 01:56:59;;;;;;;46.35;22.52;;;;;;;0.62;75.78;96210.44;1787191;80;21125;-74
2021/01/25 01:59:25;;;;;;;52.73;25.62;;;;;;;0.60;74.92;96212.58;1756585;80;21114;-74
2021/01/25 02:01:51;;;;;;;38.33;18.98;;;;;;;0.60;74.68;96218.41;1787083;80;21158;-74
2021/01/25 02:04:17;;;;;;;36.93;17.32;;;;;;;0.56;74.55;96212.80;1787122;80;21067;-74
2021/01/25 02:06:43;;;;;;;29.00;14.33;;;;;;;0.51;75.12;96217.59;1787137;80;21198;-74
2021/01/25 02:09:09;;;;;;;26.07;13.18;;;;;;;0.47;75.06;96228.48;1786996;80;21043;-74
2021/01/25 02:11:36;;;;;;;28.67;14.68;;;;;;;0.45;75.06;96220.48;1787192;80;21099;-74
2021/01/25 02:14:02;;;;;;;31.02;14.25;;;;;;;0.39;74.97;96222.31;1787063;80;21090;-74
2021/01/25 02:16:28;;;;;;;33.90;18.12;;;;;;;0.34;75.01;96221.47;1787149;80;21138;-74
2021/01/25 02:18:54;;;;;;;46.35;22.85;;;;;;;0.42;75.05;96228.45;1787061;80;21130;-74
2021/01/25 02:21:20;;;;;;;45.33;23.47;;;;;;;0.49;75.12;96229.02;1787085;80;21121;-74
2021/01/25 02:24:10;;;;;;;58.58;29.87;;;;;;;0.56;74.85;96232.27;1787100;80;21103;-74
2021/01/25 02:26:50;;;;;;;46.98;23.42;;;;;;;0.50;74.83;96229.83;1718800;83;21594;-73
2021/01/25 02:29:17;;;;;;;47.35;23.62;;;;;;;0.49;74.70;96233.02;1770045;80;21100;-74
2021/01/25 02:31:43;;;;;;;38.75;18.57;;;;;;;0.49;74.90;96229.02;1787106;80;21192;-74
2021/01/25 02:34:09;;;;;;;38.05;18.10;;;;;;;0.51;75.25;96229.59;1787083;80;21034;-74
2021/01/25 02:36:36;;;;;;;30.35;17.02;;;;;;;0.49;75.53;96228.22;1787138;80;21118;-74
2021/01/25 02:39:02;;;;;;;27.82;15.83;;;;;;;0.46;75.38;96230.08;1787033;80;21106;-74
2021/01/25 02:41:28;;;;;;;22.67;12.13;;;;;;;0.38;75.12;96227.38;1787137;80;21122;-74
2021/01/25 02:43:57;;;;;;;34.23;18.80;;;;;;;0.31;74.98;96221.47;1787002;80;21260;-74
2021/01/25 02:46:24;;;;;;;31.93;17.87;;;;;;;0.27;75.16;96225.19;1787273;80;21106;-74
2021/01/25 02:48:50;;;;;;;31.68;16.02;;;;;;;0.27;75.30;96228.38;1787034;80;21027;-74
2021/01/25 02:51:17;;;;;;;28.52;16.35;;;;;;;0.32;75.82;96231.59;1787090;80;21201;-74
2021/01/25 02:53:44;;;;;;;33.28;17.25;;;;;;;0.34;75.78;96232.93;1787086;80;21495;-74
2021/01/25 02:56:10;;;;;;;30.00;14.73;;;;;;;0.31;76.27;96229.98;1787095;80;21158;-74
2021/01/25 02:58:36;;;;;;;36.98;18.12;;;;;;;0.28;75.58;96224.12;1756335;80;21499;-74
2021/01/25 03:01:02;;;;;;;35.40;17.32;;;;;;;0.23;76.18;96230.74;1787083;80;21535;-74
2021/01/25 03:03:30;;;;;;;23.50;13.78;;;;;;;0.21;76.79;96230.73;1786976;80;21102;-74
2021/01/25 03:05:57;;;;;;;22.93;13.35;;;;;;;0.19;76.79;96233.66;1787205;80;21066;-74
2021/01/25 03:08:27;;;;;;;27.62;13.45;;;;;;;0.17;76.04;96237.12;1787044;80;21550;-74
2021/01/25 03:10:54;;;;;;;28.42;13.80;;;;;;;0.15;76.18;96233.88;1787009;80;21074;-74
2021/01/25 03:13:27;;;;;;;35.30;18.90;;;;;;;0.13;76.68;96236.54;1787047;80;21054;-74
2021/01/25 03:15:57;;;;;;;34.03;17.27;;;;;;;0.16;76.55;96240.02;1787061;80;21098;-73
2021/01/25 03:18:24;;;;;;;32.58;17.87;;;;;;;0.20;76.47;96243.25;1787209;80;21543;-74
2021/01/25 03:20:50;;;;;;;36.83;17.17;;;;;;;0.19;76.16;96242.19;1787152;80;21997;-74
2021/01/25 03:23:17;;;;;;;38.85;18.37;;;;;;;0.19;76.19;96248.31;1787019;80;21185;-74
2021/01/25 03:25:44;;;;;;;34.50;19.07;;;;;;;0.20;77.24;96244.59;1787053;80;21142;-74
2021/01/25 03:28:10;;;;;;;38.80;19.50;;;;;;;0.24;76.86;96253.66;1787114;80;21035;-74
2021/01/25 03:30:37;;;;;;;38.98;19.45;;;;;;;0.24;77.08;96250.99;1787130;80;21130;-74
2021/01/25 03:33:04;;;;;;;36.53;19.05;;;;;;;0.24;76.52;96252.86;1787052;80;21978;-74
2021/01/25 03:35:30;;;;;;;37.28;18.55;;;;;;;0.19;77.85;96246.98;1787104;80;21074;-74
2021/01/25 03:37:56;;;;;;;37.55;17.27;;;;;;;0.18;76.50;96253.38;1787055;80;21142;-74
2021/01/25 03:40:23;;;;;;;42.00;18.55;;;;;;;0.12;76.39;96253.59;1787174;80;21133;-74
2021/01/25 03:42:49;;;;;;;39.88;18.95;;;;;;;0.09;76.25;96252.24;1787125;80;21122;-74
2021/01/25 03:45:15;;;;;;;34.85;17.42;;;;;;;0.06;77.34;96246.08;1787059;80;21455;-74
2021/01/25 03:47:41;;;;;;;37.67;21.37;;;;;;;0.05;76.66;96253.00;1786961;80;21130;-74
2021/01/25 03:50:09;;;;;;;38.33;19.98;;;;;;;-0.02;76.53;96250.02;1787037;80;21079;-74
2021/01/25 03:52:35;;;;;;;38.38;20.40;;;;;;;0.01;76.80;96251.92;1787092;80;21134;-74
2021/01/25 03:55:01;;;;;;;36.88;20.77;;;;;;;0.05;77.35;96249.80;1787101;80;21423;-74
2021/01/25 03:57:27;;;;;;;39.27;20.50;;;;;;;0.11;77.23;96236.00;1787104;80;21844;-74
2021/01/25 03:59:53;;;;;;;36.65;20.60;;;;;;;0.14;77.62;96236.81;1786949;80;21126;-74
2021/01/25 04:02:19;;;;;;;43.05;20.55;;;;;;;0.13;77.21;96237.34;1787119;80;21162;-74
2021/01/25 04:04:46;;;;;;;36.17;20.30;;;;;;;0.12;77.54;96235.74;1787187;80;21114;-74
2021/01/25 04:07:12;;;;;;;43.98;19.90;;;;;;;0.16;77.28;96232.02;1787253;80;21110;-74
2021/01/25 04:09:39;;;;;;;42.10;21.75;;;;;;;0.18;77.77;96236.06;1787163;80;21932;-73
2021/01/25 04:12:06;;;;;;;47.05;22.95;;;;;;;0.16;77.95;96242.14;1787214;80;21126;-74
2021/01/25 04:14:32;;;;;;;43.23;21.17;;;;;;;0.15;77.92;96244.54;1787163;80;21408;-74
2021/01/25 04:16:59;;;;;;;35.35;17.90;;;;;;;0.16;77.58;96237.35;1787306;80;21158;-74
2021/01/25 04:19:25;;;;;;;38.02;17.55;;;;;;;0.09;77.31;96236.27;1787210;80;21495;-74
2021/01/25 04:21:51;;;;;;;35.17;17.95;;;;;;;0.07;77.05;96238.89;1787209;80;22048;-74
2021/01/25 04:24:17;;;;;;;38.45;18.30;;;;;;;0.04;77.40;96234.88;1787064;80;21085;-74
2021/01/25 04:26:44;;;;;;;102.22;37.53;;;;;;;0.03;77.82;96233.81;1787218;80;21134;-74
2021/01/25 04:29:12;;;;;;;94.20;34.03;;;;;;;0.08;77.84;96233.30;1755037;80;21042;-74
2021/01/25 04:31:38;;;;;;;52.93;22.97;;;;;;;0.11;77.71;96232.01;1786818;80;21063;-74
2021/01/25 04:34:05;;;;;;;50.75;22.00;;;;;;;0.16;77.79;96230.69;1787251;80;21263;-74
2021/01/25 04:36:32;;;;;;;48.65;26.07;;;;;;;0.15;77.41;96231.75;1787245;80;21512;-74
2021/01/25 04:38:59;;;;;;;40.33;22.45;;;;;;;0.17;77.26;96234.45;1787145;80;21702;-74
2021/01/25 04:41:25;;;;;;;43.25;22.70;;;;;;;0.21;77.26;96235.53;1787237;80;21090;-74
2021/01/25 04:43:53;;;;;;;45.43;21.60;;;;;;;0.24;78.02;96229.68;1787892;80;21011;-74
2021/01/25 04:46:22;;;;;;;48.92;24.75;;;;;;;0.20;77.74;96239.26;1790714;80;21305;-74
2021/01/25 04:48:49;;;;;;;39.90;23.12;;;;;;;0.19;77.42;96231.53;1790567;80;21030;-74
2021/01/25 04:51:15;;;;;;;36.65;20.37;;;;;;;0.21;77.22;96238.20;1790658;80;21486;-74
2021/01/25 04:53:41;;;;;;;36.60;20.25;;;;;;;0.25;77.15;96238.47;1790468;80;21177;-74
2021/01/25 04:56:08;;;;;;;33.78;18.05;;;;;;;0.25;77.02;96232.61;1790574;80;21102;-74
2021/01/25 04:58:35;;;;;;;31.57;16.70;;;;;;;0.26;76.92;96227.58;1790480;80;21195;-74
2021/01/25 05:01:02;;;;;;;41.83;22.75;;;;;;;0.27;76.94;96235.84;1790544;80;21101;-74
2021/01/25 05:03:28;;;;;;;44.42;22.73;;;;;;;0.27;76.64;96233.18;1790422;80;21098;-74
2021/01/25 05:05:56;;;;;;;48.40;24.60;;;;;;;0.13;76.58;96234.68;1790622;80;21522;-74
2021/01/25 05:08:22;;;;;;;48.60;24.45;;;;;;;0.07;76.74;96229.56;1790484;80;21082;-74
2021/01/25 05:10:48;;;;;;;55.40;29.10;;;;;;;-0.01;76.81;96232.17;1790548;80;21363;-74
2021/01/25 05:13:25;;;;;;;56.95;28.75;;;;;;;-0.01;77.12;96246.82;1790560;80;21105;-74
2021/01/25 05:15:52;;;;;;;74.05;35.28;;;;;;;-0.03;77.22;96241.75;1790646;80;21459;-74
2021/01/25 05:18:21;;;;;;;53.05;28.40;;;;;;;-0.12;77.19;96239.83;1790501;80;21083;-73
2021/01/25 05:20:49;;;;;;;61.98;31.00;;;;;;;-0.17;77.15;96237.11;1790717;80;21102;-74
2021/01/25 05:23:15;;;;;;;60.47;28.17;;;;;;;-0.19;77.77;96240.03;1764230;80;21410;-74
2021/01/25 05:25:41;;;;;;;49.38;26.70;;;;;;;-0.19;77.59;96240.56;1790494;80;21431;-74
2021/01/25 05:28:14;;;;;;;52.73;26.97;;;;;;;-0.18;77.49;96239.50;1764033;80;21019;-74
2021/01/25 05:30:40;;;;;;;45.52;23.02;;;;;;;-0.16;77.48;96243.53;1781599;80;21047;-74
2021/01/25 05:33:06;;;;;;;54.08;27.27;;;;;;;-0.16;77.32;96252.85;1790522;80;21027;-74
2021/01/25 05:35:32;;;;;;;52.10;24.72;;;;;;;-0.17;77.31;96241.10;1790575;80;22038;-74
2021/01/25 05:38:02;;;;;;;42.40;21.17;;;;;;;-0.13;77.33;96244.34;1790405;80;21245;-74
2021/01/25 05:40:31;;;;;;;53.65;26.90;;;;;;;-0.10;77.34;96245.69;1764471;80;21400;-74
2021/01/25 05:42:57;;;;;;;55.30;24.80;;;;;;;-0.08;77.23;96254.25;1790585;80;21118;-74
2021/01/25 05:45:25;;;;;;;54.25;28.35;;;;;;;-0.02;77.26;96250.55;1790461;80;21106;-74
2021/01/25 05:47:53;;;;;;;47.93;23.30;;;;;;;0.02;77.03;96248.19;1763931;80;21219;-74
2021/01/25 05:50:32;;;;;;;45.00;19.30;;;;;;;0.03;76.98;96244.47;1790671;80;25049;-74
2021/01/25 05:53:00;;;;;;;30.77;14.87;;;;;;;0.05;76.85;96249.80;1790659;80;21121;-74
2021/01/25 05:55:27;;;;;;;41.05;18.67;;;;;;;0.05;76.69;96243.67;1790597;80;21114;-74
2021/01/25 05:57:53;;;;;;;39.85;18.12;;;;;;;0.03;76.32;96248.46;1790491;80;21510;-73
2021/01/25 06:00:20;;;;;;;40.83;19.27;;;;;;;0.06;76.57;96254.59;1790472;80;21227;-73
2021/01/25 06:02:47;;;;;;;39.05;16.73;;;;;;;0.07;76.36;96250.87;1790396;80;21079;-73
2021/01/25 06:05:19;;;;;;;36.15;15.85;;;;;;;0.10;76.45;96246.39;1790466;80;21022;-73
2021/01/25 06:07:45;;;;;;;34.45;15.72;;;;;;;0.15;76.43;96256.53;1790424;80;21110;-74
2021/01/25 06:10:13;;;;;;;74.87;34.45;;;;;;;0.17;76.19;96269.59;1790485;80;21420;-74
2021/01/25 06:12:41;;;;;;;101.60;43.90;;;;;;;0.17;75.26;96261.09;1790697;80;21471;-74
2021/01/25 06:15:12;;;;;;;95.05;40.05;;;;;;;0.20;74.57;96263.23;1763940;80;21102;-74
2021/01/25 06:17:39;;;;;;;79.32;34.92;;;;;;;0.28;75.30;96263.28;1790024;80;21114;-74
2021/01/25 06:20:06;;;;;;;60.03;27.55;;;;;;;0.31;72.64;96264.63;1790468;80;21102;-74
2021/01/25 06:22:34;;;;;;;55.43;22.32;;;;;;;0.36;74.34;96264.67;1790478;80;21102;-74
2021/01/25 06:25:00;;;;;;;48.68;20.68;;;;;;;0.39;74.83;96263.62;1790349;80;21271;-74
2021/01/25 06:27:27;;;;;;;32.23;16.05;;;;;;;0.43;74.59;96262.06;1790392;80;21066;-74
2021/01/25 06:29:53;;;;;;;29.45;13.30;;;;;;;0.41;73.86;96268.68;1763882;80;21050;-74
2021/01/25 06:32:19;;;;;;;24.85;11.90;;;;;;;0.45;74.17;96273.25;1790420;80;21110;-74
2021/01/25 06:34:45;;;;;;;18.32;10.20;;;;;;;0.49;74.22;96269.53;1790513;80;21083;-74
2021/01/25 06:37:13;;;;;;;19.65;10.45;;;;;;;0.49;72.25;96278.86;1790458;80;21348;-74
2021/01/25 06:39:45;;;;;;;20.30;9.73;;;;;;;0.48;73.52;96271.40;1790319;80;21035;-74
2021/01/25 06:42:15;;;;;;;19.60;10.28;;;;;;;0.46;71.28;96270.06;1790414;80;21098;-74
2021/01/25 06:44:42;;;;;;;15.60;8.55;;;;;;;0.49;72.65;96264.20;1765851;80;21436;-74
2021/01/25 06:47:09;;;;;;;13.38;8.13;;;;;;;0.54;72.99;96273.57;1795777;80;21069;-74
2021/01/25 06:49:36;;;;;;;13.88;8.05;;;;;;;0.54;72.56;96269.04;1795715;80;21264;-74
2021/01/25 06:52:02;;;;;;;14.78;7.90;;;;;;;0.59;73.05;96267.45;1768945;80;21125;-74
2021/01/25 06:54:28;;;;;;;18.48;9.73;;;;;;;0.61;72.76;96280.81;1795786;80;21050;-74
2021/01/25 06:56:58;;;;;;;27.55;19.45;;;;;;;0.65;71.97;96282.42;1795851;80;21124;-74
2021/01/25 06:59:32;;;;;;;28.02;16.65;;;;;;;0.59;70.49;96280.78;1795714;80;21035;-74
2021/01/25 07:01:58;;;;;;;26.15;15.30;;;;;;;0.59;71.68;96277.58;1795883;80;21193;-74
2021/01/25 07:04:26;;;;;;;17.10;10.93;;;;;;;0.59;71.60;96278.91;1795709;80;21053;-74
2021/01/25 07:06:56;;;;;;;15.05;9.23;;;;;;;0.49;70.21;96277.00;1795802;80;21058;-74
2021/01/25 07:09:31;;;;;;;17.67;9.28;;;;;;;0.44;70.37;96280.18;1795811;80;21031;-74
2021/01/25 07:12:02;;;;;;;19.17;8.73;;;;;;;0.44;70.93;96278.84;1795775;80;21074;-74
2021/01/25 07:14:32;;;;;;;39.13;20.32;;;;;;;0.40;70.85;96275.88;1795111;80;21295;-74
2021/01/25 07:16:59;;;;;;;31.45;16.07;;;;;;;0.42;71.44;96280.95;1795651;80;21480;-74
2021/01/25 07:19:26;;;;;;;20.88;13.25;;;;;;;0.44;71.27;96280.18;1795687;80;21041;-74
2021/01/25 07:21:54;;;;;;;21.27;10.53;;;;;;;0.42;71.65;96287.61;1795703;80;21102;-74
2021/01/25 07:24:23;;;;;;;40.25;16.15;;;;;;;0.46;71.87;96286.05;1795734;80;21082;-74
2021/01/25 07:26:52;;;;;;;30.92;14.68;;;;;;;0.47;72.08;96298.31;1795809;80;21199;-74
2021/01/25 07:29:18;;;;;;;21.90;12.28;;;;;;;0.45;71.91;96293.77;1794931;80;21070;-74
2021/01/25 07:31:44;;;;;;;34.10;15.32;;;;;;;0.49;72.19;96294.85;1795827;80;21121;-74
2021/01/25 07:34:11;;;;;;;22.73;10.58;;;;;;;0.56;72.30;96299.43;1795663;80;21034;-74
2021/01/25 07:36:38;;;;;;;28.45;12.80;;;;;;;0.44;71.70;96300.17;1795748;80;21075;-74
2021/01/25 07:39:07;;;;;;;30.92;16.32;;;;;;;0.39;71.58;96298.79;1795708;80;21194;-74
2021/01/25 07:41:33;;;;;;;;;;;;;;;0.41;71.89;96294.00;1797951;80;21093;-74
2021/01/25 07:44:01;;;;;;;26.62;13.30;;;;;;;0.45;71.89;96295.11;1795678;80;20217;-74
2021/01/25 07:46:27;;;;;;;26.60;12.95;;;;;;;0.42;72.46;96300.40;1787603;78;21499;-74
2021/01/25 07:48:54;;;;;;;23.92;12.28;;;;;;;0.49;72.44;96301.52;1787063;80;21019;-74
2021/01/25 07:51:21;;;;;;;25.30;12.55;;;;;;;0.45;72.16;96302.57;1787055;80;21099;-74
2021/01/25 07:53:48;;;;;;;21.52;10.28;;;;;;;0.53;72.51;96307.95;1787067;80;21066;-74
2021/01/25 07:56:18;;;;;;;26.68;14.33;;;;;;;0.47;72.34;96300.98;1787048;80;21138;-74
2021/01/25 07:58:45;;;;;;;21.85;12.00;;;;;;;0.47;72.52;96304.44;1787135;80;21130;-74
2021/01/25 08:01:17;;;;;;;19.98;12.05;;;;;;;0.47;72.43;96305.77;1787076;80;21000;-74
2021/01/25 08:03:44;;;;;;;25.15;13.15;;;;;;;0.44;72.58;96304.16;1787015;80;21412;-74
2021/01/25 08:06:10;;;;;;;32.67;16.40;;;;;;;0.45;72.61;96309.77;1786999;80;21039;-74
2021/01/25 08:08:36;;;;;;;36.05;17.70;;;;;;;0.46;72.78;96310.03;1787136;80;21503;-74
2021/01/25 08:11:07;;;;;;;19.65;12.95;;;;;;;0.42;73.05;96309.73;1787121;80;21035;-74
2021/01/25 08:13:45;;;;;;;25.88;12.63;;;;;;;0.42;72.82;96310.26;1787153;80;21115;-74
2021/01/25 08:16:14;;;;;;;114.30;19.02;;;;;;;0.41;73.12;96314.79;1787158;80;22034;-74
2021/01/25 08:18:56;;;;;;;25.90;13.45;;;;;;;0.47;73.37;96308.44;1786964;80;21076;-74
2021/01/25 08:21:27;;;;;;;24.18;12.50;;;;;;;0.40;73.64;96313.19;1787148;80;21019;-74
2021/01/25 08:23:53;;;;;;;29.77;16.27;;;;;;;0.37;73.84;96313.70;1787124;80;21019;-74
2021/01/25 08:26:22;;;;;;;32.13;16.37;;;;;;;0.38;74.00;96313.98;1787128;80;21511;-74
2021/01/25 08:28:53;;;;;;;23.90;14.45;;;;;;;0.37;74.20;96312.91;1787255;80;21970;-75
2021/01/25 08:31:36;;;;;;;32.30;17.48;;;;;;;0.30;74.84;96317.11;1786708;80;21047;-75
2021/01/25 08:34:06;;;;;;;32.30;17.52;;;;;;;0.34;74.81;96317.39;1787010;80;21118;-74
2021/01/25 08:36:37;;;;;;;36.75;16.35;;;;;;;0.33;75.11;96317.13;1787009;80;21039;-74
2021/01/25 08:39:12;;;;;;;33.85;17.17;;;;;;;0.29;75.08;96319.51;1787054;80;21099;-74
2021/01/25 08:41:38;;;;;;;36.83;18.73;;;;;;;0.24;75.18;96324.26;1787096;80;21179;-74
2021/01/25 08:44:14;;;;;;;37.00;18.27;;;;;;;0.18;75.46;96325.30;1787029;80;21142;-74
2021/01/25 08:46:41;;;;;;;42.27;23.73;;;;;;;0.19;75.79;96325.56;1790235;80;21404;-75
2021/01/25 08:49:19;;;;;;;40.45;19.80;;;;;;;0.27;75.10;96325.63;1790501;80;21089;-74
2021/01/25 08:52:06;;;;;;;36.17;19.17;;;;;;;0.25;75.57;96321.86;1790486;80;21101;-74
2021/01/25 08:54:38;;;;;;;46.37;20.72;;;;;;;0.30;75.70;96330.97;1790582;80;21193;-74
2021/01/25 08:57:23;;;;;;;36.40;19.52;;;;;;;0.33;76.02;96329.12;1790484;80;21475;-74
2021/01/25 08:59:49;;;;;;;38.53;20.30;;;;;;;0.33;75.67;96329.91;1790487;80;21268;-74
2021/01/25 09:02:21;;;;;;;39.20;19.75;;;;;;;0.26;76.29;96330.69;1790547;80;21110;-74
2021/01/25 09:04:52;;;;;;;38.45;20.80;;;;;;;0.33;75.51;96333.91;1790457;80;21102;-74
2021/01/25 09:07:20;;;;;;;42.90;22.87;;;;;;;0.31;75.89;96339.23;1790534;80;21217;-74
2021/01/25 09:09:47;;;;;;;81.37;32.35;;;;;;;0.31;75.79;96342.70;1790541;80;21083;-73
2021/01/25 09:12:17;;;;;;;114.52;49.98;;;;;;;0.27;76.02;96343.75;1790488;80;21150;-73
2021/01/25 09:14:43;;;;;;;151.72;64.00;;;;;;;0.31;75.96;96344.56;1790469;80;21117;-74
2021/01/25 09:17:11;;;;;;;300.95;117.45;;;;;;;0.32;76.19;96342.17;1790531;80;21086;-74
2021/01/25 09:19:37;;;;;;;329.95;135.60;;;;;;;0.33;76.08;96344.57;1790537;80;21130;-74
2021/01/25 09:22:05;;;;;;;227.05;105.65;;;;;;;0.34;76.14;96342.17;1790574;80;21528;-75
2021/01/25 09:24:32;;;;;;;192.15;102.92;;;;;;;0.43;76.18;96348.67;1790554;80;21436;-74
2021/01/25 09:26:58;;;;;;;58.40;35.23;;;;;;;0.38;76.64;96349.15;1790580;80;21181;-74
2021/01/25 09:29:24;;;;;;;38.85;22.20;;;;;;;0.33;76.81;96350.43;1790504;80;21118;-74
2021/01/25 09:31:51;;;;;;;52.33;26.75;;;;;;;0.40;76.26;96350.49;1790554;80;21202;-74
2021/01/25 09:34:17;;;;;;;37.73;23.05;;;;;;;0.40;76.89;96347.02;1790459;80;21483;-74
2021/01/25 09:36:43;;;;;;;37.85;20.05;;;;;;;0.46;76.89;96349.48;1790560;80;21350;-74
2021/01/25 09:39:10;;;;;;;37.75;21.20;;;;;;;0.52;76.28;96346.33;1790437;80;21035;-74
2021/01/25 09:41:36;;;;;;;39.42;18.35;;;;;;;0.55;76.59;96354.61;1790513;80;21471;-74
2021/01/25 09:44:03;;;;;;;40.20;17.00;;;;;;;0.54;76.62;96352.20;1790535;80;21102;-74
2021/01/25 09:46:29;;;;;;;34.13;15.93;;;;;;;0.44;77.45;96346.27;1790452;80;21022;-74
2021/01/25 09:48:56;;;;;;;30.00;16.32;;;;;;;0.42;77.51;96352.89;1790465;80;21126;-74
2021/01/25 09:51:22;;;;;;;30.12;17.77;;;;;;;0.39;77.93;96350.22;1790463;80;21020;-74
2021/01/25 09:53:48;;;;;;;32.42;17.75;;;;;;;0.42;77.42;96348.37;1790576;80;21470;-74
2021/01/25 09:56:14;;;;;;;29.63;16.48;;;;;;;0.46;77.68;96352.67;1790555;80;21194;-74
2021/01/25 09:58:40;;;;;;;30.12;17.30;;;;;;;0.46;77.85;96350.02;1790422;80;21495;-74
2021/01/25 10:01:07;;;;;;;28.05;14.80;;;;;;;0.50;77.32;96356.42;1790458;80;21079;-74
2021/01/25 10:03:33;;;;;;;27.45;14.25;;;;;;;0.52;77.13;96348.47;1790524;80;21403;-74
2021/01/25 10:05:59;;;;;;;30.95;16.65;;;;;;;0.50;77.99;96351.09;1790448;80;21076;-74
2021/01/25 10:08:25;;;;;;;32.23;17.73;;;;;;;0.46;78.01;96360.14;1790528;80;21210;-74
2021/01/25 10:10:51;;;;;;;35.98;21.70;;;;;;;0.46;78.06;96358.81;1790468;80;21459;-74
2021/01/25 10:13:17;;;;;;;31.02;18.92;;;;;;;0.51;77.41;96366.85;1790557;80;21476;-74
2021/01/25 10:15:44;;;;;;;33.18;19.57;;;;;;;0.47;78.33;96367.08;1790538;80;21125;-74
2021/01/25 10:18:10;;;;;;;33.88;17.95;;;;;;;0.53;78.37;96366.59;1790470;80;21428;-74
2021/01/25 10:20:36;;;;;;;35.73;19.57;;;;;;;0.54;78.32;96370.86;1790499;80;21171;-74
2021/01/25 10:23:04;;;;;;;41.48;21.52;;;;;;;0.58;77.85;96370.61;1790383;80;21177;-74
2021/01/25 10:25:30;;;;;;;40.90;22.00;;;;;;;0.52;78.75;96375.13;1790488;80;21318;-74
2021/01/25 10:27:57;;;;;;;35.30;18.42;;;;;;;0.58;78.30;96375.94;1790540;80;21134;-74
2021/01/25 10:30:24;;;;;;;41.83;21.80;;;;;;;0.68;77.79;96374.67;1790455;80;21154;-74
2021/01/25 10:32:50;;;;;;;34.63;19.12;;;;;;;0.67;78.60;96376.27;1790487;80;22039;-74
2021/01/25 10:35:17;;;;;;;37.93;20.40;;;;;;;0.67;78.30;96377.60;1790336;80;21101;-74
2021/01/25 10:37:43;;;;;;;34.05;19.92;;;;;;;0.73;78.03;96373.38;1790419;80;21330;-74
2021/01/25 10:40:11;;;;;;;40.28;21.90;;;;;;;0.50;80.25;96378.55;1790500;80;21133;-74
2021/01/25 10:42:37;;;;;;;43.15;20.50;;;;;;;0.52;80.11;96376.45;1790480;80;21070;-74
2021/01/25 10:45:04;;;;;;;39.75;21.27;;;;;;;0.51;80.20;96378.84;1790302;80;21395;-74
2021/01/25 10:47:30;;;;;;;39.23;19.98;;;;;;;0.43;81.44;96375.85;1787137;80;21079;-74
2021/01/25 10:49:56;;;;;;;34.50;20.00;;;;;;;0.44;80.96;96378.78;1787068;80;21082;-74
2021/01/25 10:52:23;;;;;;;36.65;18.35;;;;;;;0.32;81.41;96374.94;1787094;80;21039;-74
2021/01/25 10:54:49;;;;;;;36.70;19.20;;;;;;;0.44;80.73;96378.25;1787091;80;21024;-74
2021/01/25 10:57:15;;;;;;;92.78;37.38;;;;;;;0.51;80.57;96382.02;1787147;80;22088;-74
2021/01/25 10:59:41;;;;;;;33.70;20.17;;;;;;;0.63;79.78;96375.98;1787101;80;21110;-74
2021/01/25 11:02:07;;;;;;;33.13;17.95;;;;;;;0.62;79.88;96380.25;1787056;80;21499;-74
2021/01/25 11:04:33;;;;;;;40.58;20.23;;;;;;;0.65;79.83;96374.39;1787045;80;21169;-74
2021/01/25 11:06:59;;;;;;;35.05;18.20;;;;;;;0.70;79.50;96376.58;1787074;80;21456;-74
2021/01/25 11:09:26;;;;;;;29.23;16.67;;;;;;;0.73;79.78;96380.05;1787049;80;21267;-74
2021/01/25 11:11:52;;;;;;;34.05;17.37;;;;;;;0.67;80.25;96373.60;1786959;80;21138;-74
2021/01/25 11:14:18;;;;;;;35.23;20.12;;;;;;;0.65;80.31;96379.19;1787048;80;21066;-74
2021/01/25 11:16:44;;;;;;;35.83;17.20;;;;;;;0.70;79.71;96379.24;1787132;80;21146;-74
2021/01/25 11:19:11;;;;;;;40.58;19.75;;;;;;;0.71;79.96;96378.17;1787065;80;21015;-74
2021/01/25 11:21:38;;;;;;;38.95;21.20;;;;;;;0.66;80.52;96382.13;1787073;80;22019;-74
2021/01/25 11:24:06;;;;;;;32.88;17.67;;;;;;;0.57;80.24;96386.33;1787042;80;21109;-74
2021/01/25 11:26:37;;;;;;;34.13;16.37;;;;;;;0.62;80.37;96383.72;1787268;80;21043;-74